ROMMA est une association bénévole à but non lucratif. Votre soutien est indispensable : ADHERER à ROMMA ou FAIRE un DON

Granges-lès-Beaumont - (26, Drôme)

Drôme des Collines (155 m)   Longitude: 04°58'E   Latitude: 45°03'N Station partenaire n°123
 

Détail journalier du     <<     >>

Température Precipitation Humidité Pression Vent Dir Rafale Dir. rafale Ensol.
Heure (°C) (mm) (%) (hPa) (km/h) (km/h) (min)
01:00 0.4086103300---0
02:00 0.208710322NNO10NNO0
03:00 -0.708710321NNO6NNO0
04:00 -1.508810321NNO6NNO0
05:00 -1.5088103205NNO0
06:00 -1.908810322NNO8NNO0
07:00 -2.508910321---5NNO0
08:00 -2.408910331NNO6NNO0
09:00 0.408910332NNO6NNO40
10:00 2.708610331NNO5NNO30
11:00 6.007610322NNO6NNO10
12:00 8.806310323NNO10E20
13:00 12.105410313E10E60
14:00 13.705110303ESE11ESE60
15:00 15.604410294ESE11E60
16:00 16.204310293ESE11E60
17:00 15.704310284SE11E60
18:00 13.205810281SE5SE40
19:00 8.606910283NO6SE0
20:00 5.707510293NO6NO0
21:00 4.607710293NO8NO0
22:00 3.308010291NO5NO0
23:00 2.308210293NO8NO0
minuit 1.708410295NO10NO0

Graphique du 15-02-2019

 

Serveur OMMA